createdAt,value
2022-08-22T00:01:20.243Z,18.59
2022-08-22T00:02:41.797Z,25.94
2022-08-22T00:02:46.808Z,20.01
2022-08-22T00:02:57.375Z,19.34
2022-08-22T00:02:59.383Z,18.82
2022-08-22T00:04:12.217Z,18.56
2022-08-22T00:07:09.088Z,18.57
2022-08-22T00:10:05.996Z,18.48
2022-08-22T00:12:58.160Z,18.55
2022-08-22T00:16:23.374Z,18.43
2022-08-22T00:19:08.404Z,18.32
2022-08-22T00:22:02.237Z,18.06
2022-08-22T00:25:00.262Z,17.95
2022-08-22T00:27:44.876Z,18.01
2022-08-22T00:30:18.177Z,17.95
2022-08-22T00:32:54.914Z,18.02
2022-08-22T00:35:32.935Z,18.09
2022-08-22T00:38:12.954Z,18.14
2022-08-22T00:41:27.555Z,18.04
2022-08-22T00:44:29.222Z,17.79
2022-08-22T00:47:36.116Z,17.68
2022-08-22T00:51:06.506Z,17.71
2022-08-22T00:53:49.319Z,17.52
2022-08-22T00:56:59.566Z,17.71
2022-08-22T00:59:41.623Z,17.60
2022-08-22T01:02:33.014Z,17.79
2022-08-22T01:05:20.125Z,17.31
2022-08-22T01:08:24.445Z,17.42
2022-08-22T01:11:16.163Z,17.36
2022-08-22T01:14:34.399Z,17.37
2022-08-22T01:17:27.272Z,17.63
2022-08-22T01:20:44.555Z,17.46
2022-08-22T01:23:48.718Z,17.36
2022-08-22T01:26:36.921Z,17.56
2022-08-22T01:29:44.873Z,17.60
2022-08-22T01:32:31.077Z,17.71
2022-08-22T01:35:25.566Z,17.33
2022-08-22T01:43:09.401Z,16.79
2022-08-22T01:46:06.964Z,16.90
2022-08-22T01:48:45.959Z,17.13
2022-08-22T01:51:47.980Z,17.16
2022-08-22T01:54:41.528Z,17.38
2022-08-22T01:57:34.656Z,17.54
2022-08-22T02:00:08.457Z,17.13
2022-08-22T02:03:03.538Z,17.17
2022-08-22T02:05:40.212Z,17.07
2022-08-22T02:08:45.442Z,17.23
2022-08-22T02:11:40.771Z,17.11
2022-08-22T02:15:05.829Z,17.20
2022-08-22T02:17:46.110Z,16.95
2022-08-22T02:20:39.240Z,16.83
2022-08-22T02:23:24.944Z,16.63
2022-08-22T02:26:02.437Z,16.58
2022-08-22T02:28:56.961Z,16.79
2022-08-22T02:31:45.266Z,16.83
2022-08-22T02:34:31.124Z,16.58
2022-08-22T02:37:29.489Z,16.75
2022-08-22T02:40:31.320Z,16.59
2022-08-22T02:43:37.830Z,16.40
2022-08-22T02:46:39.893Z,16.40
2022-08-22T02:49:21.346Z,16.59
2022-08-22T02:52:05.018Z,16.63
2022-08-22T02:54:53.499Z,16.43
2022-08-22T02:57:45.534Z,16.60
2022-08-22T03:00:32.695Z,16.65
2022-08-22T03:03:26.537Z,16.75
2022-08-22T03:06:02.847Z,16.53
2022-08-22T03:09:02.673Z,16.43
2022-08-22T03:11:39.134Z,16.26
2022-08-22T03:14:21.318Z,16.19
2022-08-22T03:17:08.704Z,16.27
2022-08-22T03:20:32.867Z,16.45
2022-08-22T03:23:13.975Z,16.38
2022-08-22T03:25:57.057Z,16.26
2022-08-22T03:29:20.701Z,16.05
2022-08-22T03:32:19.609Z,16.34
2022-08-22T03:35:04.073Z,16.43
2022-08-22T03:38:28.056Z,16.23
2022-08-22T03:41:29.403Z,16.16
2022-08-22T03:44:54.138Z,16.24
2022-08-22T03:47:34.223Z,16.15
2022-08-22T03:50:57.751Z,16.07
2022-08-22T03:53:41.436Z,15.97
2022-08-22T03:56:37.752Z,16.05
2022-08-22T03:59:36.580Z,15.96
2022-08-22T04:02:43.039Z,15.98
2022-08-22T04:05:35.628Z,16.04
2022-08-22T04:09:00.147Z,16.11
2022-08-22T04:12:24.268Z,15.98
2022-08-22T04:15:48.023Z,15.65
2022-08-22T04:18:35.096Z,15.76
2022-08-22T04:21:14.209Z,15.83
2022-08-22T04:24:25.797Z,16.03
2022-08-22T04:27:00.154Z,15.99
2022-08-22T04:29:39.426Z,16.09
2022-08-22T04:32:17.579Z,16.21
2022-08-22T04:35:01.213Z,15.97
2022-08-22T04:37:28.148Z,15.75
2022-08-22T04:40:22.450Z,15.68
2022-08-22T04:43:06.056Z,15.71
2022-08-22T04:45:37.318Z,15.79
2022-08-22T04:48:23.977Z,15.77
2022-08-22T04:51:03.175Z,16.03
2022-08-22T04:53:56.330Z,16.09
2022-08-22T04:56:45.640Z,16.02
2022-08-22T04:59:18.704Z,16.05
2022-08-22T05:02:06.634Z,16.08
2022-08-22T05:04:50.660Z,16.15
2022-08-22T05:07:35.993Z,16.20
2022-08-22T05:10:12.966Z,16.02
2022-08-22T05:12:45.058Z,16.18
2022-08-22T05:15:23.254Z,16.07
2022-08-22T05:17:57.232Z,16.40
2022-08-22T05:20:27.735Z,16.53
2022-08-22T05:23:06.101Z,16.65
2022-08-22T05:25:47.187Z,16.79
2022-08-22T05:28:38.345Z,16.79
2022-08-22T05:31:11.747Z,16.69
2022-08-22T05:33:48.427Z,16.76
2022-08-22T05:36:25.744Z,16.70
2022-08-22T05:39:21.765Z,16.65
2022-08-22T05:41:59.128Z,16.73
2022-08-22T05:44:34.999Z,16.88
2022-08-22T05:47:18.897Z,16.38
2022-08-22T05:50:43.224Z,16.68
2022-08-22T05:53:22.323Z,16.90
2022-08-22T05:56:45.797Z,17.18
2022-08-22T05:59:33.955Z,16.95
2022-08-22T06:02:57.446Z,17.14
2022-08-22T06:06:21.197Z,17.44
2022-08-22T06:09:45.019Z,17.70
2022-08-22T06:13:11.417Z,17.85
2022-08-22T06:15:51.841Z,18.03
2022-08-22T06:18:26.036Z,18.11
2022-08-22T06:20:57.288Z,18.34
2022-08-22T06:23:36.779Z,18.02
2022-08-22T06:27:00.181Z,17.99
2022-08-22T06:29:37.680Z,17.30
2022-08-22T06:33:01.658Z,18.02
2022-08-22T06:35:56.268Z,18.23
2022-08-22T06:39:20.266Z,18.45
2022-08-22T06:42:00.090Z,18.43
2022-08-22T06:45:23.775Z,18.62
2022-08-22T06:48:46.964Z,18.86
2022-08-22T06:51:17.633Z,19.30
2022-08-22T06:53:50.466Z,19.38
2022-08-22T06:56:24.064Z,19.32
2022-08-22T06:58:57.848Z,19.54
2022-08-22T07:01:37.868Z,19.72
2022-08-22T07:04:08.171Z,19.66
2022-08-22T07:06:39.414Z,19.93
2022-08-22T07:09:07.636Z,19.57
2022-08-22T07:11:39.777Z,19.97
2022-08-22T07:14:11.625Z,20.22
2022-08-22T07:16:59.226Z,20.55
2022-08-22T07:19:33.432Z,20.76
2022-08-22T07:22:14.259Z,20.92
2022-08-22T07:24:56.932Z,21.17
2022-08-22T07:28:07.502Z,21.37
2022-08-22T07:31:10.355Z,21.44
2022-08-22T07:33:50.711Z,21.50
2022-08-22T07:37:14.089Z,21.67
2022-08-22T07:40:37.840Z,21.74
2022-08-22T07:43:28.821Z,21.70
2022-08-22T07:46:52.510Z,21.76
2022-08-22T07:50:16.501Z,22.14
2022-08-22T07:53:40.006Z,22.36
2022-08-22T07:56:46.373Z,22.47
2022-08-22T08:00:11.098Z,22.54
2022-08-22T08:03:35.494Z,22.98
2022-08-22T08:06:59.176Z,22.23
2022-08-22T08:10:23.990Z,22.42
2022-08-22T08:13:47.909Z,22.56
2022-08-22T08:17:11.962Z,22.72
2022-08-22T08:20:36.048Z,22.98
2022-08-22T08:24:00.635Z,22.94
2022-08-22T08:27:43.374Z,22.88
2022-08-22T08:31:07.545Z,23.38
2022-08-22T08:34:32.426Z,23.34
2022-08-22T08:37:15.437Z,23.38
2022-08-22T08:40:39.167Z,23.64
2022-08-22T08:44:03.195Z,24.27
2022-08-22T08:47:26.659Z,24.57
2022-08-22T08:50:50.162Z,24.79
2022-08-22T08:54:15.646Z,25.25
2022-08-22T08:57:20.130Z,24.75
2022-08-22T09:00:08.111Z,24.80
2022-08-22T09:03:10.123Z,25.19
2022-08-22T09:06:00.944Z,24.85
2022-08-22T09:08:45.682Z,25.45
2022-08-22T09:12:01.475Z,25.34
2022-08-22T09:14:49.957Z,25.86
2022-08-22T09:17:47.089Z,26.05
2022-08-22T09:20:30.521Z,25.75
2022-08-22T09:23:23.575Z,26.13
2022-08-22T09:25:59.647Z,26.28
2022-08-22T09:28:40.051Z,26.25
2022-08-22T09:31:47.439Z,26.57
2022-08-22T09:35:09.249Z,27.09
2022-08-22T09:38:33.412Z,27.47
2022-08-22T09:41:14.377Z,27.55
2022-08-22T09:44:39.638Z,26.94
2022-08-22T09:48:07.511Z,27.39
2022-08-22T09:51:28.629Z,27.53
2022-08-22T09:54:49.165Z,27.82
2022-08-22T09:58:13.754Z,27.92
2022-08-22T10:00:57.315Z,28.18
2022-08-22T10:04:21.408Z,27.89
2022-08-22T10:07:45.094Z,28.03
2022-08-22T10:11:19.502Z,28.07
2022-08-22T10:14:01.674Z,28.08
2022-08-22T10:17:25.559Z,28.43
2022-08-22T10:20:24.963Z,28.31
2022-08-22T10:23:51.148Z,28.59
2022-08-22T10:27:15.041Z,28.56
2022-08-22T10:30:38.291Z,29.29
2022-08-22T10:34:02.061Z,28.98
2022-08-22T10:36:48.271Z,28.82
2022-08-22T10:39:24.656Z,28.86
2022-08-22T10:42:06.976Z,29.26
2022-08-22T10:45:23.467Z,29.82
2022-08-22T10:47:54.416Z,29.61
2022-08-22T10:51:46.029Z,-144.85
2022-08-22T10:55:40.403Z,-144.85
2022-08-22T10:58:15.091Z,29.70
2022-08-22T11:01:38.594Z,29.59
2022-08-22T11:04:48.039Z,29.37
2022-08-22T11:08:14.213Z,30.08
2022-08-22T11:11:38.053Z,30.30
2022-08-22T11:15:02.965Z,31.21
2022-08-22T11:18:27.158Z,31.03
2022-08-22T11:21:53.932Z,31.29
2022-08-22T11:25:29.221Z,30.08
2022-08-22T11:29:11.285Z,30.56
2022-08-22T11:32:37.525Z,31.08
2022-08-22T11:36:04.457Z,31.77
2022-08-22T11:39:28.635Z,32.31
2022-08-22T11:42:52.260Z,31.72
2022-08-22T11:46:19.850Z,31.88
2022-08-22T11:49:43.606Z,31.81
2022-08-22T11:53:07.705Z,31.66
2022-08-22T11:56:31.929Z,32.25
2022-08-22T11:59:55.881Z,32.84
2022-08-22T12:03:23.101Z,33.82
2022-08-22T12:05:57.261Z,34.29
2022-08-22T12:08:51.294Z,34.91
2022-08-22T12:11:35.078Z,34.54
2022-08-22T12:14:18.168Z,34.90
2022-08-22T12:17:50.847Z,35.11
2022-08-22T12:20:38.543Z,35.38
2022-08-22T12:23:48.833Z,36.55
2022-08-22T12:27:08.215Z,37.98
2022-08-22T12:29:57.184Z,37.98
2022-08-22T12:32:43.943Z,37.98
2022-08-22T12:35:30.982Z,37.66
2022-08-22T12:38:34.820Z,37.20
2022-08-22T12:41:46.797Z,39.89
2022-08-22T12:44:40.657Z,38.89
2022-08-22T12:47:37.045Z,37.23
2022-08-22T12:50:36.012Z,38.84
2022-08-22T12:53:51.261Z,40.21
2022-08-22T12:56:34.490Z,41.33
2022-08-22T12:59:26.563Z,43.56
2022-08-22T13:02:00.734Z,44.57
2022-08-22T13:04:34.215Z,42.88
2022-08-22T13:07:25.723Z,39.88
2022-08-22T13:10:30.981Z,41.64
2022-08-22T13:13:00.038Z,43.60
2022-08-22T13:15:43.048Z,44.51
2022-08-22T13:18:31.146Z,43.09
2022-08-22T13:21:05.148Z,42.78
2022-08-22T13:23:39.885Z,44.05
2022-08-22T13:26:31.838Z,45.43
2022-08-22T13:29:25.063Z,43.92
2022-08-22T13:32:02.102Z,43.19
2022-08-22T13:34:43.713Z,44.49
2022-08-22T13:37:20.255Z,46.04
2022-08-22T13:39:57.813Z,47.58
2022-08-22T13:42:30.877Z,47.93
2022-08-22T13:45:05.423Z,45.00
2022-08-22T13:47:39.334Z,44.42
2022-08-22T13:50:10.238Z,45.01
2022-08-22T13:53:07.204Z,42.22
2022-08-22T13:55:48.966Z,44.77
2022-08-22T13:58:35.266Z,43.70
2022-08-22T14:01:37.781Z,44.26
2022-08-22T14:04:32.095Z,46.30
2022-08-22T14:07:03.716Z,47.20
2022-08-22T14:09:58.425Z,46.23
2022-08-22T14:12:33.407Z,46.38
2022-08-22T14:15:24.239Z,47.64
2022-08-22T14:18:01.268Z,47.68
2022-08-22T14:20:33.999Z,48.65
2022-08-22T14:23:10.354Z,47.93
2022-08-22T14:25:41.351Z,47.77
2022-08-22T14:28:27.457Z,46.99
2022-08-22T14:31:13.501Z,46.77
2022-08-22T14:33:58.241Z,46.45
2022-08-22T14:37:12.911Z,48.52
2022-08-22T14:39:49.915Z,48.54
2022-08-22T14:42:44.411Z,45.51
2022-08-22T14:45:18.034Z,45.26
2022-08-22T14:48:29.222Z,45.38
2022-08-22T14:51:04.175Z,46.33
2022-08-22T14:54:28.877Z,46.16
2022-08-22T14:56:57.739Z,47.68
2022-08-22T14:59:37.091Z,48.70
2022-08-22T15:02:23.747Z,45.82
2022-08-22T15:05:48.630Z,46.12
2022-08-22T15:08:28.453Z,46.23
2022-08-22T15:11:23.246Z,47.74
2022-08-22T15:14:07.788Z,47.57
2022-08-22T15:16:55.415Z,43.45
2022-08-22T15:20:25.933Z,41.12
2022-08-22T15:23:01.891Z,39.51
2022-08-22T15:26:25.908Z,36.93
2022-08-22T15:29:49.478Z,36.54
2022-08-22T15:32:22.935Z,36.66
2022-08-22T15:35:06.204Z,36.28
2022-08-22T15:37:55.717Z,35.70
2022-08-22T15:41:19.300Z,34.52
2022-08-22T15:43:54.171Z,35.79
2022-08-22T15:47:24.142Z,38.34
2022-08-22T15:50:51.638Z,36.95
2022-08-22T15:53:33.719Z,39.51
2022-08-22T15:56:07.127Z,40.38
2022-08-22T15:58:37.258Z,41.67
2022-08-22T16:01:24.486Z,42.64
2022-08-22T16:04:00.182Z,41.19
2022-08-22T16:06:54.551Z,39.64
2022-08-22T16:09:44.723Z,39.63
2022-08-22T16:12:45.787Z,39.12
2022-08-22T16:15:48.640Z,38.63
2022-08-22T16:18:39.722Z,38.22
2022-08-22T16:21:22.956Z,37.37
2022-08-22T16:23:49.918Z,36.22
2022-08-22T16:26:29.267Z,35.55
2022-08-22T16:28:59.325Z,35.05
2022-08-22T16:31:32.589Z,34.28
2022-08-22T16:34:38.288Z,33.42
2022-08-22T16:37:08.306Z,32.83
2022-08-22T16:39:47.100Z,32.92
2022-08-22T16:42:14.328Z,32.90
2022-08-22T16:44:50.685Z,32.61
2022-08-22T16:47:42.450Z,31.88
2022-08-22T16:50:15.536Z,31.67
2022-08-22T16:52:54.915Z,31.89
2022-08-22T16:55:31.037Z,31.84
2022-08-22T16:58:06.829Z,31.80
2022-08-22T17:00:58.553Z,31.77
2022-08-22T17:04:01.612Z,32.01
2022-08-22T17:07:14.467Z,31.99
2022-08-22T17:10:38.866Z,31.80
2022-08-22T17:13:26.482Z,31.43
2022-08-22T17:16:16.131Z,31.50
2022-08-22T17:19:40.182Z,31.35
2022-08-22T17:22:17.618Z,31.09
2022-08-22T17:25:41.066Z,30.84
2022-08-22T17:28:57.077Z,30.74
2022-08-22T17:32:20.692Z,30.82
2022-08-22T17:35:21.041Z,30.19
2022-08-22T17:38:45.356Z,30.24
2022-08-22T17:42:09.148Z,29.98
2022-08-22T17:45:07.484Z,29.94
2022-08-22T17:48:31.356Z,29.79
2022-08-22T17:51:58.111Z,29.54
2022-08-22T17:54:48.583Z,29.42
2022-08-22T17:57:33.617Z,29.40
2022-08-22T18:00:11.363Z,29.51
2022-08-22T18:02:54.933Z,29.37
2022-08-22T18:06:18.522Z,29.35
2022-08-22T18:09:15.226Z,29.23
2022-08-22T18:12:06.754Z,29.06
2022-08-22T18:15:04.799Z,28.85
2022-08-22T18:17:41.284Z,28.82
2022-08-22T18:20:17.097Z,28.74
2022-08-22T18:23:36.014Z,28.45
2022-08-22T18:27:04.192Z,28.11
2022-08-22T18:30:27.947Z,27.98
2022-08-22T18:33:51.364Z,27.90
2022-08-22T18:37:17.057Z,27.81
2022-08-22T18:40:50.099Z,27.54
2022-08-22T18:44:14.179Z,27.66
2022-08-22T18:47:38.026Z,27.52
2022-08-22T18:51:02.299Z,27.41
2022-08-22T18:54:26.300Z,26.60
2022-08-22T18:57:49.859Z,26.12
2022-08-22T19:01:15.354Z,26.67
2022-08-22T19:04:40.238Z,26.72
2022-08-22T19:08:04.076Z,26.69
2022-08-22T19:11:35.121Z,26.44
2022-08-22T19:15:00.634Z,26.39
2022-08-22T19:18:24.380Z,26.30
2022-08-22T19:22:06.633Z,26.24
2022-08-22T19:25:26.125Z,26.16
2022-08-22T19:28:11.451Z,25.99
2022-08-22T19:30:52.823Z,25.74
2022-08-22T19:33:41.558Z,25.72
2022-08-22T19:36:29.840Z,25.62
2022-08-22T19:39:08.899Z,25.31
2022-08-22T19:41:39.227Z,25.33
2022-08-22T19:44:21.414Z,25.01
2022-08-22T19:47:24.190Z,24.94
2022-08-22T19:49:51.306Z,24.59
2022-08-22T19:52:55.377Z,24.95
2022-08-22T19:55:37.443Z,24.78
2022-08-22T19:58:45.458Z,24.79
2022-08-22T20:01:43.793Z,24.74
2022-08-22T20:05:17.539Z,24.51
2022-08-22T20:08:14.382Z,24.36
2022-08-22T20:11:11.250Z,24.20
2022-08-22T20:13:38.961Z,24.22
2022-08-22T20:17:12.714Z,24.08
2022-08-22T20:22:47.132Z,24.06
2022-08-22T20:25:42.514Z,23.95
2022-08-22T20:28:23.737Z,23.90
2022-08-22T20:31:47.466Z,23.95
2022-08-22T20:34:26.464Z,23.72
2022-08-22T20:37:15.777Z,23.46
2022-08-22T20:40:53.564Z,23.39
2022-08-22T20:44:05.713Z,23.44
2022-08-22T20:47:36.227Z,23.40
2022-08-22T20:50:11.847Z,23.30
2022-08-22T20:53:35.038Z,23.24
2022-08-22T20:56:03.330Z,23.25
2022-08-22T20:59:27.714Z,23.24
2022-08-22T21:02:11.277Z,23.11
2022-08-22T21:05:07.984Z,22.91
2022-08-22T21:07:39.866Z,22.99
2022-08-22T21:11:22.803Z,22.98
2022-08-22T21:14:46.706Z,22.81
2022-08-22T21:18:10.326Z,22.69
2022-08-22T21:20:39.640Z,22.63
2022-08-22T21:23:15.404Z,22.59
2022-08-22T21:26:03.807Z,22.43
2022-08-22T21:28:37.167Z,22.47
2022-08-22T21:31:19.923Z,22.49
2022-08-22T21:33:50.215Z,22.48
2022-08-22T21:36:22.340Z,22.31
2022-08-22T21:38:58.051Z,22.35
2022-08-22T21:41:42.533Z,22.36
2022-08-22T21:44:28.080Z,22.24
2022-08-22T21:46:57.705Z,22.23
2022-08-22T21:49:29.669Z,22.22
2022-08-22T21:51:56.699Z,22.11
2022-08-22T21:54:29.581Z,22.03
2022-08-22T21:57:15.252Z,21.93
2022-08-22T21:59:52.233Z,21.92
2022-08-22T22:02:37.134Z,21.86
2022-08-22T22:05:16.280Z,21.71
2022-08-22T22:07:49.561Z,21.69
2022-08-22T22:10:20.630Z,21.63
2022-08-22T22:12:52.008Z,21.58
2022-08-22T22:15:24.663Z,21.58
2022-08-22T22:17:52.676Z,21.32
2022-08-22T22:20:23.842Z,21.38
2022-08-22T22:22:50.951Z,21.42
2022-08-22T22:25:40.825Z,21.49
2022-08-22T22:28:17.538Z,21.44
2022-08-22T22:30:50.349Z,21.38
2022-08-22T22:33:20.095Z,21.27
2022-08-22T22:36:24.020Z,21.12
2022-08-22T22:38:52.007Z,21.06
2022-08-22T22:41:23.252Z,20.95
2022-08-22T22:43:50.534Z,21.04
2022-08-22T22:46:17.646Z,21.07
2022-08-22T22:48:44.969Z,20.99
2022-08-22T22:51:16.239Z,21.01
2022-08-22T22:56:36.905Z,20.91
2022-08-22T22:59:13.333Z,20.91
2022-08-22T23:02:01.982Z,20.91
2022-08-22T23:04:31.113Z,20.81
2022-08-22T23:06:58.496Z,20.73
2022-08-22T23:09:37.981Z,20.78
2022-08-22T23:12:06.702Z,20.76
2022-08-22T23:14:35.190Z,20.78
2022-08-22T23:17:03.725Z,20.78
2022-08-22T23:19:31.735Z,20.75
2022-08-22T23:22:01.064Z,20.72
2022-08-22T23:24:30.964Z,20.65
2022-08-22T23:26:59.213Z,20.60
2022-08-22T23:29:26.919Z,20.54
2022-08-22T23:32:00.691Z,20.53
2022-08-22T23:34:32.398Z,20.48
2022-08-22T23:37:02.453Z,20.46
2022-08-22T23:39:35.578Z,20.40
2022-08-22T23:42:02.826Z,20.38
2022-08-22T23:44:33.955Z,20.17
2022-08-22T23:47:02.868Z,19.99
2022-08-22T23:49:31.496Z,19.98
2022-08-22T23:51:59.399Z,19.93
2022-08-22T23:54:27.141Z,19.73
2022-08-22T23:56:57.850Z,19.75
2022-08-22T23:59:31.009Z,19.81
